LBB weather

Lubbock Preston Smith International Airport
Lubbock, Texas, United States

Public forecast

Using degrees Fahrenheit for public forecast. Weather courtesy of forecast.io.

Current aviation weather report (METAR) for Lubbock Preston Smith International Airport

Retrieved 2019/10/16 07:53 UTC (21 minutes ago):

KLBB 160753Z 05007KT 10SM CLR 09/01 A3026 RMK AO2 SLP217 T00890006

Aviation forecast (TAF) for Lubbock Preston Smith International Airport

Retrieved 2019/10/16 06:22 UTC (2 hours ago):

TAF KLBB 160520Z 1606/1706 04008KT P6SM SKC